Time;durP1;ratioP1;P1;durP2;ratioP2;P2;SDS_P1;SDS_P2;PMS_P1;PMS_P2;Temp;Humidity;BMP_temperature;BMP_pressure;BME280_temperature;BME280_humidity;BME280_pressure;Samples;Min_cycle;Max_cycle;Signal;HPM_P1;HPM_P2
2024/01/10 00:00:11;;;;;;;4.57;3.07;;;-3.40;99.90;;;;;;5022880;28;20174;-63
2024/01/10 00:02:37;;;;;;;4.67;2.80;;;-3.50;99.90;;;;;;5024962;28;20260;-63
2024/01/10 00:05:05;;;;;;;5.50;3.00;;;-3.50;99.90;;;;;;5017455;28;20232;-63
2024/01/10 00:07:31;;;;;;;4.77;3.00;;;-3.50;99.90;;;;;;5014261;28;20178;-62
2024/01/10 00:09:59;;;;;;;3.57;2.40;;;-3.50;99.90;;;;;;5016253;28;20250;-63
2024/01/10 00:12:25;;;;;;;4.60;3.00;;;-3.50;99.90;;;;;;5017264;28;20178;-62
2024/01/10 00:14:51;;;;;;;4.43;2.70;;;-3.50;99.90;;;;;;5010906;28;20171;-62
2024/01/10 00:17:19;;;;;;;7.03;2.90;;;-3.50;99.90;;;;;;5007868;28;20190;-63
2024/01/10 00:19:46;;;;;;;6.70;3.70;;;-3.50;99.90;;;;;;5012527;28;20182;-63
2024/01/10 00:22:12;;;;;;;6.17;3.70;;;-3.50;99.90;;;;;;5015886;28;20258;-63
2024/01/10 00:24:40;;;;;;;6.37;3.67;;;-3.60;99.90;;;;;;5017262;28;20229;-62
2024/01/10 00:27:08;;;;;;;5.93;3.67;;;-3.60;99.90;;;;;;5016732;28;20173;-63
2024/01/10 00:29:35;;;;;;;6.30;3.40;;;-3.60;99.90;;;;;;5014864;28;20320;-63
2024/01/10 00:32:04;;;;;;;5.33;3.20;;;-3.60;99.90;;;;;;5013924;28;20214;-63
2024/01/10 00:34:29;;;;;;;5.73;3.10;;;-3.60;99.90;;;;;;5006216;28;20174;-63
2024/01/10 00:36:58;;;;;;;4.27;2.90;;;-3.70;99.90;;;;;;4999333;28;20245;-63
2024/01/10 00:39:26;;;;;;;5.70;2.70;;;-3.70;99.90;;;;;;5014200;28;20206;-63
2024/01/10 00:41:54;;;;;;;3.73;2.30;;;-3.70;99.90;;;;;;5016323;28;20174;-63
2024/01/10 00:44:20;;;;;;;3.93;2.50;;;-3.80;99.90;;;;;;4997220;28;20213;-63
2024/01/10 00:46:45;;;;;;;3.30;2.60;;;-3.80;99.90;;;;;;5019299;28;20287;-62
2024/01/10 00:49:13;;;;;;;6.43;2.53;;;-3.80;99.90;;;;;;4997359;28;20197;-62
2024/01/10 00:51:39;;;;;;;4.60;2.70;;;-3.80;99.90;;;;;;5012285;28;20567;-63
2024/01/10 00:54:04;;;;;;;3.80;2.60;;;-3.80;99.90;;;;;;5010292;28;20249;-65
2024/01/10 00:56:32;;;;;;;3.57;2.53;;;-3.80;99.90;;;;;;5016844;28;20202;-63
2024/01/10 00:58:58;;;;;;;3.00;2.20;;;-3.80;99.90;;;;;;5014621;28;20181;-63
2024/01/10 01:01:26;;;;;;;3.83;2.20;;;-3.80;99.90;;;;;;5015600;28;20201;-63
2024/01/10 01:03:54;;;;;;;3.30;2.13;;;-3.90;99.90;;;;;;5016797;28;20184;-63
2024/01/10 01:06:24;;;;;;;4.57;2.33;;;-3.80;99.90;;;;;;5007238;28;20178;-63
2024/01/10 01:08:50;;;;;;;4.37;2.73;;;-3.80;99.90;;;;;;5000861;28;20205;-63
2024/01/10 01:11:18;;;;;;;4.37;2.50;;;-3.90;99.90;;;;;;5021188;28;20263;-63
2024/01/10 01:13:43;;;;;;;3.83;2.43;;;-3.90;99.90;;;;;;5004769;28;20206;-62
2024/01/10 01:16:11;;;;;;;3.37;2.40;;;-3.90;99.90;;;;;;5024074;28;20240;-63
2024/01/10 01:18:39;;;;;;;4.63;2.47;;;-3.90;99.90;;;;;;5012581;28;20174;-63
2024/01/10 01:21:09;;;;;;;4.53;2.70;;;-3.90;99.90;;;;;;5005237;28;20341;-63
2024/01/10 01:23:37;;;;;;;4.50;2.70;;;-3.90;99.90;;;;;;5016319;28;20538;-63
2024/01/10 01:26:04;;;;;;;4.57;2.70;;;-3.90;99.90;;;;;;5032116;28;20186;-62
2024/01/10 01:28:30;;;;;;;3.93;2.60;;;-3.90;99.90;;;;;;5015240;28;20181;-64
2024/01/10 01:30:55;;;;;;;4.13;2.43;;;-3.90;99.90;;;;;;5016990;28;20327;-64
2024/01/10 01:33:21;;;;;;;4.40;2.70;;;-3.90;99.90;;;;;;5009605;28;20196;-63
2024/01/10 01:35:49;;;;;;;4.00;2.90;;;-4.00;99.90;;;;;;5036418;28;20198;-63
2024/01/10 01:38:15;;;;;;;3.77;2.53;;;-4.00;99.90;;;;;;5017188;28;20210;-64
2024/01/10 01:40:43;;;;;;;3.80;2.50;;;-4.00;99.90;;;;;;5016522;28;20213;-63
2024/01/10 01:43:22;;;;;;;6.73;3.07;;;-4.00;99.90;;;;;;5014126;28;20229;-63
2024/01/10 01:45:53;;;;;;;4.60;2.60;;;-4.00;99.90;;;;;;5015326;28;20239;-63
2024/01/10 01:48:23;;;;;;;4.37;2.83;;;-4.00;99.90;;;;;;5014787;28;20200;-63
2024/01/10 01:50:52;;;;;;;4.37;2.60;;;-4.00;99.90;;;;;;5015676;28;20186;-63
2024/01/10 01:53:19;;;;;;;4.53;2.27;;;-4.00;99.90;;;;;;5015306;28;20290;-63
2024/01/10 01:55:45;;;;;;;3.60;2.43;;;-4.00;99.90;;;;;;5015999;28;20206;-63
2024/01/10 01:58:13;;;;;;;4.23;2.60;;;-4.10;99.90;;;;;;5014235;28;20193;-63
2024/01/10 02:00:40;;;;;;;4.33;2.40;;;-4.10;99.90;;;;;;5028288;28;20226;-63
2024/01/10 02:03:06;;;;;;;6.20;2.20;;;-4.10;99.90;;;;;;5016165;28;20186;-63
2024/01/10 02:05:32;;;;;;;3.67;2.20;;;-4.10;99.90;;;;;;5017585;28;20197;-63
2024/01/10 02:07:58;;;;;;;4.40;2.30;;;-4.10;99.90;;;;;;5033047;28;20202;-63
2024/01/10 02:10:24;;;;;;;3.33;2.27;;;-4.10;99.90;;;;;;5017293;28;20196;-64
2024/01/10 02:12:49;;;;;;;3.90;2.50;;;-4.20;99.90;;;;;;5016625;28;20182;-62
2024/01/10 02:15:17;;;;;;;4.27;2.10;;;-4.20;99.90;;;;;;5017451;28;20274;-63
2024/01/10 02:17:43;;;;;;;4.07;2.33;;;-4.20;99.90;;;;;;5015914;28;21241;-62
2024/01/10 02:20:16;;;;;;;4.07;2.20;;;-4.20;99.90;;;;;;5018173;28;20232;-60
2024/01/10 02:22:42;;;;;;;3.13;2.23;;;-4.20;99.90;;;;;;5015728;28;20206;-62
2024/01/10 02:25:11;;;;;;;5.13;2.50;;;-4.20;99.90;;;;;;5014743;28;20193;-64
2024/01/10 02:27:37;;;;;;;3.37;2.13;;;-4.20;99.90;;;;;;5014590;28;20395;-63
2024/01/10 02:30:04;;;;;;;3.90;2.30;;;-4.20;99.90;;;;;;5015983;28;20230;-64
2024/01/10 02:32:32;;;;;;;4.03;2.50;;;-4.20;99.90;;;;;;5010049;28;20193;-63
2024/01/10 02:34:58;;;;;;;3.80;2.30;;;-4.20;99.90;;;;;;5012690;28;20185;-63
2024/01/10 02:37:24;;;;;;;3.47;2.33;;;-4.20;99.90;;;;;;5016543;28;20198;-63
2024/01/10 02:39:53;;;;;;;3.03;2.27;;;-4.20;99.90;;;;;;5014175;28;20179;-63
2024/01/10 02:42:18;;;;;;;4.03;2.40;;;-4.30;99.90;;;;;;5014765;28;20204;-63
2024/01/10 02:44:46;;;;;;;3.60;2.10;;;-4.20;99.90;;;;;;5015255;28;20178;-62
2024/01/10 02:47:12;;;;;;;2.57;1.90;;;-4.30;99.90;;;;;;5016146;28;20201;-63
2024/01/10 02:49:39;;;;;;;3.70;2.20;;;-4.30;99.90;;;;;;5016769;28;20301;-63
2024/01/10 02:52:05;;;;;;;3.60;2.30;;;-4.30;99.90;;;;;;5014493;28;20281;-64
2024/01/10 02:54:33;;;;;;;4.00;2.03;;;-4.30;99.90;;;;;;5016693;28;20264;-62
2024/01/10 02:57:00;;;;;;;3.73;2.00;;;-4.30;99.90;;;;;;5013034;28;20218;-63
2024/01/10 02:59:26;;;;;;;4.63;2.30;;;-4.30;99.90;;;;;;5016031;28;20178;-63
2024/01/10 03:01:54;;;;;;;4.73;2.17;;;-4.30;99.90;;;;;;5032403;28;20514;-62
2024/01/10 03:04:20;;;;;;;3.20;2.00;;;-4.30;99.90;;;;;;5016173;28;20243;-63
2024/01/10 03:06:45;;;;;;;3.13;2.10;;;-4.30;99.90;;;;;;5012341;28;20324;-63
2024/01/10 03:09:13;;;;;;;3.67;2.23;;;-4.30;99.90;;;;;;5016180;28;20185;-61
2024/01/10 03:11:39;;;;;;;3.23;2.00;;;-4.30;99.90;;;;;;5008691;28;20193;-62
2024/01/10 03:14:11;;;;;;;4.63;2.30;;;-4.30;99.90;;;;;;5014643;28;20186;-63
2024/01/10 03:16:37;;;;;;;3.60;2.10;;;-4.30;99.90;;;;;;5018175;28;20239;-61
2024/01/10 03:19:03;;;;;;;3.10;2.10;;;-4.30;99.90;;;;;;5016497;28;20182;-63
2024/01/10 03:21:29;;;;;;;3.47;2.50;;;-4.30;99.90;;;;;;5011057;28;20205;-62
2024/01/10 03:24:01;;;;;;;4.53;2.67;;;-4.30;99.90;;;;;;5015380;28;20269;-63
2024/01/10 03:26:27;;;;;;;4.30;2.70;;;-4.30;99.90;;;;;;5014979;28;20281;-63
2024/01/10 03:28:55;;;;;;;3.50;2.30;;;-4.30;99.90;;;;;;5013946;28;20240;-62
2024/01/10 03:31:24;;;;;;;3.80;2.00;;;-4.30;99.90;;;;;;5007104;28;20207;-64
2024/01/10 03:33:55;;;;;;;3.27;2.00;;;-4.20;99.90;;;;;;5013885;28;20199;-63
2024/01/10 03:36:24;;;;;;;3.37;2.17;;;-4.30;99.90;;;;;;5014575;28;20198;-65
2024/01/10 03:38:58;;;;;;;3.20;1.97;;;-4.30;99.90;;;;;;5016353;28;20189;-63
2024/01/10 03:41:26;;;;;;;3.47;2.10;;;-4.30;99.90;;;;;;5012958;28;20193;-63
2024/01/10 03:43:57;;;;;;;3.27;2.00;;;-4.30;99.90;;;;;;5008448;28;20248;-63
2024/01/10 03:46:22;;;;;;;3.77;2.30;;;-4.30;99.90;;;;;;5010764;28;20194;-64
2024/01/10 03:48:52;;;;;;;3.67;2.50;;;-4.30;99.90;;;;;;5015363;28;20216;-62
2024/01/10 03:51:18;;;;;;;6.13;2.57;;;-4.30;99.90;;;;;;5009538;28;20186;-63
2024/01/10 03:53:48;;;;;;;4.00;2.40;;;-4.30;99.90;;;;;;5014428;28;20372;-63
2024/01/10 03:56:14;;;;;;;4.17;2.70;;;-4.30;99.90;;;;;;5014370;28;20198;-62
2024/01/10 03:58:40;;;;;;;4.40;3.07;;;-4.30;99.90;;;;;;5011751;28;20280;-63
2024/01/10 04:01:07;;;;;;;4.70;2.83;;;-4.30;99.90;;;;;;5013660;28;20280;-62
2024/01/10 04:03:33;;;;;;;5.07;3.13;;;-4.30;99.90;;;;;;5014788;28;20202;-62
2024/01/10 04:06:02;;;;;;;3.80;2.40;;;-4.30;99.90;;;;;;5014521;28;21638;-62
2024/01/10 04:08:27;;;;;;;3.83;2.20;;;-4.40;99.90;;;;;;5014050;28;20197;-62
2024/01/10 04:10:53;;;;;;;3.90;2.37;;;-4.40;99.90;;;;;;5014414;28;20205;-62
2024/01/10 04:13:18;;;;;;;4.17;2.60;;;-4.40;99.90;;;;;;5014293;28;20186;-64
2024/01/10 04:15:44;;;;;;;4.33;2.40;;;-4.40;99.90;;;;;;5012581;28;20215;-64
2024/01/10 04:18:12;;;;;;;3.80;2.20;;;-4.40;99.90;;;;;;5005987;28;20210;-63
2024/01/10 04:20:40;;;;;;;3.30;2.20;;;-4.40;99.90;;;;;;5017300;28;20170;-63
2024/01/10 04:23:05;;;;;;;4.47;3.03;;;-4.40;99.90;;;;;;5013190;28;20190;-64
2024/01/10 04:25:36;;;;;;;4.10;2.43;;;-4.40;99.90;;;;;;5014841;28;20193;-63
2024/01/10 04:28:04;;;;;;;3.70;2.43;;;-4.40;99.90;;;;;;5032224;28;20279;-63
2024/01/10 04:30:32;;;;;;;4.10;2.60;;;-4.40;99.90;;;;;;5007350;28;20209;-63
2024/01/10 04:33:00;;;;;;;3.00;2.00;;;-4.40;99.90;;;;;;5014526;28;20680;-62
2024/01/10 04:35:26;;;;;;;2.77;1.90;;;-4.40;99.90;;;;;;5009275;28;20218;-63
2024/01/10 04:37:51;;;;;;;4.30;2.60;;;-4.40;99.90;;;;;;5008081;28;20344;-63
2024/01/10 04:40:17;;;;;;;3.83;2.23;;;-4.50;99.90;;;;;;5016884;28;20174;-63
2024/01/10 04:42:46;;;;;;;3.90;2.30;;;-4.40;99.90;;;;;;5014705;28;20177;-63
2024/01/10 04:45:11;;;;;;;3.50;2.10;;;-4.40;99.90;;;;;;5010916;28;20217;-64
2024/01/10 04:47:37;;;;;;;3.53;2.03;;;-4.40;99.90;;;;;;5013779;28;20178;-62
2024/01/10 04:50:05;;;;;;;4.90;2.40;;;-4.40;99.90;;;;;;5014182;28;20186;-62
2024/01/10 04:52:30;;;;;;;3.87;2.17;;;-4.40;99.90;;;;;;5013956;28;20186;-63
2024/01/10 04:54:56;;;;;;;3.40;2.37;;;-4.40;99.90;;;;;;5012717;28;20251;-63
2024/01/10 04:57:22;;;;;;;4.30;3.03;;;-4.40;99.90;;;;;;5012716;28;20236;-63
2024/01/10 04:59:48;;;;;;;4.17;2.33;;;-4.50;99.90;;;;;;5013791;28;20231;-64
2024/01/10 05:02:19;;;;;;;3.60;1.97;;;-4.40;99.90;;;;;;5015195;28;20220;-62
2024/01/10 05:04:45;;;;;;;4.53;2.43;;;-4.40;99.90;;;;;;5018189;28;20189;-62
2024/01/10 05:07:11;;;;;;;3.50;2.10;;;-4.50;99.90;;;;;;5019349;28;20268;-62
2024/01/10 05:09:37;;;;;;;3.50;2.27;;;-4.40;99.90;;;;;;5016728;28;20192;-63
2024/01/10 05:12:02;;;;;;;3.93;2.43;;;-4.40;99.90;;;;;;5015783;28;20335;-62
2024/01/10 05:14:28;;;;;;;4.60;2.97;;;-4.50;99.90;;;;;;5019031;28;20182;-63
2024/01/10 05:16:56;;;;;;;4.40;2.47;;;-4.40;99.90;;;;;;5016634;28;20217;-63
2024/01/10 05:19:22;;;;;;;3.67;2.57;;;-4.40;99.90;;;;;;5020356;28;20186;-63
2024/01/10 05:21:50;;;;;;;3.63;2.23;;;-4.40;99.90;;;;;;5012366;28;20261;-62
2024/01/10 05:24:16;;;;;;;5.57;3.00;;;-4.40;99.90;;;;;;5015114;28;20217;-64
2024/01/10 05:26:43;;;;;;;4.40;2.70;;;-4.40;99.90;;;;;;5018474;28;20204;-63
2024/01/10 05:29:09;;;;;;;4.60;2.90;;;-4.40;99.90;;;;;;5016440;28;20181;-62
2024/01/10 05:31:34;;;;;;;4.63;2.80;;;-4.40;99.90;;;;;;5014231;28;20193;-63
2024/01/10 05:34:00;;;;;;;4.57;2.80;;;-4.40;99.90;;;;;;5017975;28;20189;-62
2024/01/10 05:36:26;;;;;;;5.47;3.37;;;-4.40;99.90;;;;;;5018358;28;20198;-61
2024/01/10 05:38:52;;;;;;;8.03;3.80;;;-4.40;99.90;;;;;;5017946;28;20316;-63
2024/01/10 05:41:17;;;;;;;7.40;4.17;;;-4.40;99.90;;;;;;5018655;28;20242;-62
2024/01/10 05:43:43;;;;;;;7.03;4.07;;;-4.40;99.90;;;;;;5018615;28;20184;-62
2024/01/10 05:46:09;;;;;;;8.33;4.33;;;-4.40;99.90;;;;;;5014812;28;20218;-62
2024/01/10 05:48:35;;;;;;;6.90;4.60;;;-4.40;99.90;;;;;;5017180;28;20244;-63
2024/01/10 05:51:01;;;;;;;7.40;4.30;;;-4.30;99.90;;;;;;5017137;28;20198;-63
2024/01/10 05:53:29;;;;;;;6.30;4.00;;;-4.30;99.90;;;;;;5017521;28;20186;-62
2024/01/10 05:55:55;;;;;;;8.33;4.13;;;-4.30;99.90;;;;;;5015361;28;20206;-63
2024/01/10 05:58:20;;;;;;;7.63;4.50;;;-4.30;99.90;;;;;;5019102;28;20186;-62
2024/01/10 06:00:46;;;;;;;7.67;4.20;;;-4.30;99.90;;;;;;5017342;28;20316;-63
2024/01/10 06:03:16;;;;;;;6.67;3.87;;;-4.20;99.90;;;;;;5016198;28;20184;-63
2024/01/10 06:05:42;;;;;;;6.00;3.37;;;-4.20;99.90;;;;;;5017134;28;20201;-64
2024/01/10 06:08:08;;;;;;;7.50;3.80;;;-4.20;99.90;;;;;;5016775;28;20185;-63
2024/01/10 06:10:36;;;;;;;6.80;3.50;;;-4.20;99.90;;;;;;5016198;28;20178;-63
2024/01/10 06:13:01;;;;;;;4.80;3.00;;;-4.10;99.90;;;;;;5007656;28;20298;-63
2024/01/10 06:15:27;;;;;;;5.53;3.13;;;-4.10;99.90;;;;;;5016386;28;20383;-62
2024/01/10 06:17:53;;;;;;;5.47;3.67;;;-4.10;99.90;;;;;;5015084;28;20202;-64
2024/01/10 06:20:20;;;;;;;5.70;3.23;;;-4.00;99.90;;;;;;4999911;28;20209;-64
2024/01/10 06:22:46;;;;;;;4.80;3.33;;;-4.00;99.90;;;;;;5013822;28;20185;-65
2024/01/10 06:25:14;;;;;;;4.10;2.90;;;-3.90;99.90;;;;;;5017994;28;20178;-63
2024/01/10 06:27:43;;;;;;;3.43;2.53;;;-3.90;99.90;;;;;;5014233;28;20264;-63
2024/01/10 06:30:11;;;;;;;4.23;3.00;;;-3.90;99.90;;;;;;5019324;28;20214;-63
2024/01/10 06:32:36;;;;;;;4.70;3.10;;;-3.80;99.90;;;;;;5018710;28;20201;-63
2024/01/10 06:35:04;;;;;;;4.57;2.97;;;-3.80;99.90;;;;;;5017337;28;20170;-62
2024/01/10 06:37:32;;;;;;;4.10;3.00;;;-3.80;99.90;;;;;;5019087;28;20231;-63
2024/01/10 06:39:58;;;;;;;4.83;3.40;;;-3.80;99.90;;;;;;5018570;28;20285;-63
2024/01/10 06:42:26;;;;;;;4.87;3.27;;;-3.80;99.90;;;;;;5010807;28;20253;-63
2024/01/10 06:44:51;;;;;;;5.30;3.23;;;-3.80;99.90;;;;;;5012899;28;20170;-62
2024/01/10 06:47:17;;;;;;;5.83;3.20;;;-3.90;99.90;;;;;;5018513;28;20194;-62
2024/01/10 06:49:45;;;;;;;5.50;3.03;;;-4.00;99.90;;;;;;5007330;28;20178;-62
2024/01/10 06:52:11;;;;;;;4.63;3.07;;;-4.00;99.90;;;;;;5012940;28;20174;-63
2024/01/10 06:54:39;;;;;;;5.87;3.10;;;-4.10;99.90;;;;;;5014777;28;20265;-63
2024/01/10 06:57:07;;;;;;;4.60;2.70;;;-4.20;99.90;;;;;;5016075;28;20460;-63
2024/01/10 06:59:35;;;;;;;4.40;2.70;;;-4.20;99.90;;;;;;5016147;28;20241;-62
2024/01/10 07:02:01;;;;;;;4.77;2.40;;;-4.30;99.90;;;;;;5016182;28;20260;-63
2024/01/10 07:04:29;;;;;;;4.37;2.57;;;-4.30;99.90;;;;;;5015183;28;20179;-62
2024/01/10 07:06:55;;;;;;;4.50;2.90;;;-4.30;99.90;;;;;;5031022;28;20245;-62
2024/01/10 07:09:21;;;;;;;5.20;3.10;;;-4.30;99.90;;;;;;5014709;28;20201;-62
2024/01/10 07:11:47;;;;;;;5.17;3.27;;;-4.30;99.90;;;;;;5016097;28;20227;-64
2024/01/10 07:14:14;;;;;;;3.90;2.70;;;-4.30;99.90;;;;;;5015438;28;20256;-64
2024/01/10 07:16:42;;;;;;;5.23;2.80;;;-4.30;99.90;;;;;;5015841;28;20296;-63
2024/01/10 07:19:13;;;;;;;4.73;2.80;;;-4.30;99.90;;;;;;5016794;28;20193;-64
2024/01/10 07:21:45;;;;;;;4.07;2.50;;;-4.30;99.90;;;;;;5017432;28;20540;-63
2024/01/10 07:24:13;;;;;;;5.87;3.00;;;-4.20;99.90;;;;;;5017948;28;20245;-63
2024/01/10 07:26:45;;;;;;;5.73;3.13;;;-4.20;99.90;;;;;;5017870;28;20183;-64
2024/01/10 07:29:13;;;;;;;4.17;2.70;;;-4.20;99.90;;;;;;5035047;28;20186;-64
2024/01/10 07:31:40;;;;;;;4.27;2.87;;;-4.20;99.90;;;;;;5015469;28;20182;-64
2024/01/10 07:34:06;;;;;;;5.80;3.40;;;-4.20;99.90;;;;;;4999245;28;20195;-64
2024/01/10 07:36:38;;;;;;;5.23;3.73;;;-4.20;99.90;;;;;;5006192;28;20222;-64
2024/01/10 07:39:03;;;;;;;5.17;3.33;;;-4.10;99.90;;;;;;5038421;28;20170;-64
2024/01/10 07:41:29;;;;;;;5.03;3.23;;;-4.10;99.90;;;;;;5033791;28;20204;-65
2024/01/10 07:43:57;;;;;;;5.70;3.17;;;-4.10;99.90;;;;;;5017228;28;20264;-64
2024/01/10 07:46:30;;;;;;;5.30;3.30;;;-4.10;99.90;;;;;;5011285;28;20264;-63
2024/01/10 07:48:55;;;;;;;5.57;3.07;;;-4.10;99.90;;;;;;5018568;28;20255;-64
2024/01/10 07:51:23;;;;;;;4.33;2.90;;;-4.10;99.90;;;;;;5016148;28;20174;-64
2024/01/10 07:53:51;;;;;;;4.57;2.70;;;-4.10;99.90;;;;;;5019375;28;20411;-65
2024/01/10 07:56:19;;;;;;;5.03;2.97;;;-4.10;99.90;;;;;;5017796;28;20312;-69
2024/01/10 07:58:48;;;;;;;4.27;2.87;;;-4.10;99.90;;;;;;5018155;28;20432;-70
2024/01/10 08:01:17;;;;;;;4.60;3.13;;;-4.10;99.90;;;;;;5000779;28;20213;-67
2024/01/10 08:03:43;;;;;;;4.73;3.23;;;-4.10;99.90;;;;;;5030340;28;20279;-70
2024/01/10 08:06:10;;;;;;;6.10;3.13;;;-4.10;99.90;;;;;;4998357;28;20187;-71
2024/01/10 08:08:36;;;;;;;5.80;3.63;;;-4.10;99.90;;;;;;5002733;28;20182;-70
2024/01/10 08:11:05;;;;;;;6.37;4.00;;;-3.70;99.90;;;;;;5029131;28;20214;-69
2024/01/10 08:13:31;;;;;;;5.83;3.13;;;-4.00;99.90;;;;;;5031228;28;20182;-68
2024/01/10 08:15:56;;;;;;;5.97;3.40;;;-4.00;99.90;;;;;;5033985;28;20210;-68
2024/01/10 08:18:24;;;;;;;4.73;3.07;;;-4.00;99.90;;;;;;5017880;28;20197;-69
2024/01/10 08:20:50;;;;;;;5.37;3.20;;;-3.90;99.90;;;;;;5017811;28;20174;-70
2024/01/10 08:23:15;;;;;;;3.83;2.70;;;-3.90;99.90;;;;;;5017653;28;20178;-70
2024/01/10 08:25:44;;;;;;;5.60;2.90;;;-3.90;99.90;;;;;;5013073;28;20197;-70
2024/01/10 08:28:10;;;;;;;5.10;3.20;;;-3.80;99.90;;;;;;4998014;28;20221;-68
2024/01/10 08:30:38;;;;;;;4.77;3.00;;;-3.80;99.90;;;;;;5032106;28;20181;-70
2024/01/10 08:33:04;;;;;;;6.00;4.07;;;-3.80;99.90;;;;;;5023274;28;20186;-69
2024/01/10 08:35:30;;;;;;;7.57;4.27;;;-3.70;99.90;;;;;;5006248;28;20304;-68
2024/01/10 08:37:55;;;;;;;5.47;3.67;;;-3.70;99.90;;;;;;4997220;28;20247;-69
2024/01/10 08:40:26;;;;;;;4.97;3.23;;;-3.60;99.90;;;;;;5002028;28;20178;-69
2024/01/10 08:42:52;;;;;;;4.50;3.27;;;-3.60;99.90;;;;;;5017437;28;20162;-68
2024/01/10 08:45:18;;;;;;;6.37;3.87;;;-3.50;99.90;;;;;;5004599;28;20230;-70
2024/01/10 08:47:44;;;;;;;6.17;3.83;;;-3.50;99.90;;;;;;5017509;28;20174;-70
2024/01/10 08:50:12;;;;;;;7.83;4.23;;;-3.40;99.90;;;;;;5017536;28;20210;-70
2024/01/10 08:52:38;;;;;;;6.00;3.77;;;-3.30;99.90;;;;;;5017507;28;20208;-70
2024/01/10 08:55:05;;;;;;;6.00;3.80;;;-3.20;99.90;;;;;;5017189;28;20185;-69
2024/01/10 08:57:33;;;;;;;5.67;3.77;;;-3.20;99.90;;;;;;5017659;28;20170;-69
2024/01/10 08:59:59;;;;;;;5.67;3.50;;;-3.10;99.90;;;;;;5017581;28;20261;-69
2024/01/10 09:02:27;;;;;;;7.00;4.13;;;-3.00;99.90;;;;;;5014653;28;20171;-72
2024/01/10 09:04:53;;;;;;;6.67;3.90;;;-3.00;99.90;;;;;;4998318;28;20178;-70
2024/01/10 09:07:19;;;;;;;7.03;3.93;;;-2.90;99.90;;;;;;5015642;28;20173;-71
2024/01/10 09:09:45;;;;;;;6.47;3.90;;;-2.80;99.90;;;;;;5016887;28;20228;-70
2024/01/10 09:12:14;;;;;;;5.67;3.50;;;-2.70;99.90;;;;;;5017480;28;20201;-68
2024/01/10 09:14:39;;;;;;;7.47;4.40;;;-2.60;99.90;;;;;;5016587;28;20269;-70
2024/01/10 09:17:05;;;;;;;6.70;4.13;;;-2.50;99.90;;;;;;5016901;28;20301;-70
2024/01/10 09:19:33;;;;;;;6.13;4.10;;;-2.50;99.90;;;;;;5016857;28;20219;-69
2024/01/10 09:21:59;;;;;;;7.00;4.50;;;-2.40;99.90;;;;;;4998152;28;20175;-69
2024/01/10 09:24:27;;;;;;;8.17;4.57;;;-2.40;99.90;;;;;;5014666;28;20178;-70
2024/01/10 09:26:56;;;;;;;7.50;4.97;;;-2.30;99.90;;;;;;5013829;28;20206;-68
2024/01/10 09:29:25;;;;;;;8.50;4.87;;;-2.20;99.90;;;;;;4997782;28;20178;-71
2024/01/10 09:31:54;;;;;;;7.80;4.60;;;-2.20;99.90;;;;;;4997478;28;20242;-70
2024/01/10 09:34:20;;;;;;;7.73;4.90;;;-2.10;99.90;;;;;;4997411;28;20202;-70
2024/01/10 09:36:46;;;;;;;9.13;5.17;;;-2.10;99.90;;;;;;4997263;28;20203;-70
2024/01/10 09:39:13;;;;;;;8.57;5.40;;;-2.00;99.90;;;;;;4997306;28;20175;-68
2024/01/10 09:41:45;;;;;;;9.07;5.50;;;-2.00;99.90;;;;;;5015672;28;20235;-68
2024/01/10 09:44:12;;;;;;;7.87;5.10;;;-1.90;99.90;;;;;;5034118;28;20435;-72
2024/01/10 09:46:40;;;;;;;10.37;5.60;;;-1.80;99.90;;;;;;5017139;28;20193;-70
2024/01/10 09:49:09;;;;;;;8.37;5.17;;;-1.70;99.90;;;;;;5017810;28;20324;-71
2024/01/10 09:51:34;;;;;;;8.93;4.77;;;-1.70;99.90;;;;;;5020983;28;20174;-73
2024/01/10 09:54:04;;;;;;;9.03;6.07;;;-1.70;99.90;;;;;;5020406;28;20364;-71
2024/01/10 09:56:34;;;;;;;11.87;6.30;;;-1.60;99.90;;;;;;5020467;28;20267;-68
2024/01/10 09:59:06;;;;;;;9.43;5.90;;;-1.50;99.90;;;;;;5005358;28;20178;-71
2024/01/10 10:01:34;;;;;;;11.30;6.57;;;-1.50;99.90;;;;;;5003483;28;20300;-69
2024/01/10 10:04:01;;;;;;;9.43;5.93;;;-1.40;99.90;;;;;;5020663;28;20244;-70
2024/01/10 10:06:27;;;;;;;9.90;5.93;;;-1.40;99.90;;;;;;5020540;28;20186;-70
2024/01/10 10:08:55;;;;;;;9.50;5.40;;;-1.30;99.90;;;;;;5020302;28;20197;-71
2024/01/10 10:11:20;;;;;;;7.97;5.13;;;-1.30;99.90;;;;;;5020107;28;20178;-71
2024/01/10 10:13:48;;;;;;;9.17;5.97;;;-1.20;99.90;;;;;;5020170;28;20255;-69
2024/01/10 10:16:26;;;;;;;9.33;5.37;;;-1.10;99.90;;;;;;5016591;28;20226;-71
2024/01/10 10:18:58;;;;;;;9.57;6.17;;;-1.10;99.90;;;;;;5000636;28;20204;-70
2024/01/10 10:21:28;;;;;;;9.70;5.97;;;-1.00;99.90;;;;;;5002529;28;20178;-70
2024/01/10 10:24:07;;;;;;;9.37;5.60;;;-1.00;99.90;;;;;;5000344;28;20262;-69
2024/01/10 10:26:34;;;;;;;10.20;5.73;;;-0.90;99.90;;;;;;5009477;28;20317;-69
2024/01/10 10:29:00;;;;;;;8.47;5.43;;;-0.90;99.90;;;;;;5000905;28;20198;-70
2024/01/10 10:31:26;;;;;;;9.80;6.07;;;-0.90;99.90;;;;;;5019359;28;20178;-68
2024/01/10 10:33:57;;;;;;;9.57;6.20;;;-0.90;99.90;;;;;;5019501;28;20209;-69
2024/01/10 10:36:22;;;;;;;9.73;6.17;;;-0.90;99.90;;;;;;5016109;28;20571;-69
2024/01/10 10:38:49;;;;;;;11.13;6.40;;;-0.80;99.90;;;;;;5009019;28;20500;-69
2024/01/10 10:41:15;;;;;;;7.77;5.70;;;-0.90;99.90;;;;;;5019540;28;20226;-69
2024/01/10 10:43:43;;;;;;;11.37;6.40;;;-0.80;99.90;;;;;;5015563;28;20343;-69
2024/01/10 10:46:12;;;;;;;11.57;6.93;;;-0.90;99.90;;;;;;4999674;28;20190;-69
2024/01/10 10:48:40;;;;;;;11.17;7.27;;;-0.80;99.90;;;;;;5009822;28;20323;-69
2024/01/10 10:51:11;;;;;;;13.33;7.27;;;-0.80;99.90;;;;;;5016075;28;20182;-69
2024/01/10 10:53:45;;;;;;;12.57;6.90;;;-0.90;99.90;;;;;;4999842;28;20167;-69
2024/01/10 10:56:14;;;;;;;9.63;6.40;;;-0.90;99.90;;;;;;4999758;28;20401;-70
2024/01/10 10:58:47;;;;;;;9.67;6.00;;;-0.90;99.90;;;;;;5004687;28;20174;-69
2024/01/10 11:01:14;;;;;;;9.53;5.93;;;-0.90;99.90;;;;;;4998995;28;20377;-69
2024/01/10 11:03:44;;;;;;;9.40;6.13;;;-0.80;99.90;;;;;;4999766;28;20182;-68
2024/01/10 11:06:12;;;;;;;11.13;6.70;;;-0.80;99.90;;;;;;5018941;28;20212;-69
2024/01/10 11:08:47;;;;;;;12.07;6.43;;;-0.80;99.90;;;;;;5019451;28;20220;-69
2024/01/10 11:11:21;;;;;;;10.60;6.37;;;-0.70;99.90;;;;;;5019151;28;20200;-70
2024/01/10 11:14:35;;;;;;;8.87;5.60;;;-0.70;99.90;;;;;;5018830;28;20209;-68
2024/01/10 11:17:00;;;;;;;8.43;5.80;;;-0.70;99.90;;;;;;4936750;29;20223;-69
2024/01/10 11:19:51;;;;;;;8.93;5.60;;;-0.70;99.90;;;;;;4989809;28;20186;-70
2024/01/10 11:22:25;;;;;;;8.63;5.60;;;-0.60;99.90;;;;;;5010226;28;20256;-68
2024/01/10 11:24:52;;;;;;;10.50;6.00;;;-0.50;99.90;;;;;;5018544;28;20245;-70
2024/01/10 11:27:23;;;;;;;10.20;6.40;;;-0.40;99.90;;;;;;5018702;28;20186;-68
2024/01/10 11:29:51;;;;;;;8.80;6.00;;;-0.30;99.90;;;;;;5018801;28;20380;-70
2024/01/10 11:32:18;;;;;;;9.57;6.23;;;-0.20;99.90;;;;;;5018467;28;20186;-70
2024/01/10 11:35:19;;;;;;;9.67;5.97;;;-0.10;99.90;;;;;;5015720;28;20186;-69
2024/01/10 11:37:49;;;;;;;9.40;6.07;;;0.10;99.90;;;;;;4998680;28;20238;-68
2024/01/10 11:40:15;;;;;;;9.03;6.43;;;0.20;99.90;;;;;;5013733;28;20181;-69
2024/01/10 11:42:45;;;;;;;10.80;6.40;;;0.30;99.90;;;;;;5018298;28;20204;-69
2024/01/10 11:45:39;;;;;;;10.37;6.83;;;0.40;99.90;;;;;;5014823;28;20198;-68
2024/01/10 11:48:09;;;;;;;8.53;5.77;;;0.60;99.90;;;;;;5015081;28;20166;-69
2024/01/10 11:50:35;;;;;;;8.37;6.17;;;0.80;99.90;;;;;;5018400;28;20182;-69
2024/01/10 11:53:01;;;;;;;9.70;6.60;;;1.00;99.90;;;;;;5017962;28;20203;-71
2024/01/10 11:55:54;;;;;;;13.47;7.00;;;1.20;99.90;;;;;;5027887;28;20202;-70
2024/01/10 11:58:19;;;;;;;10.33;6.57;;;1.40;99.90;;;;;;5018392;28;20254;-72
2024/01/10 12:00:47;;;;;;;9.67;6.90;;;1.60;99.90;;;;;;5014505;28;20641;-70
2024/01/10 12:03:16;;;;;;;10.67;6.57;;;1.70;99.90;;;;;;5014772;28;20174;-69
2024/01/10 12:05:43;;;;;;;10.20;6.80;;;1.90;99.90;;;;;;5014499;28;20261;-69
2024/01/10 12:08:09;;;;;;;10.57;6.90;;;1.90;99.90;;;;;;5025199;28;20261;-69
2024/01/10 12:10:38;;;;;;;9.87;6.60;;;1.90;99.90;;;;;;5017903;28;20269;-70
2024/01/10 12:13:04;;;;;;;11.10;7.00;;;1.90;99.90;;;;;;5017104;28;20205;-69
2024/01/10 12:15:29;;;;;;;10.50;6.77;;;1.90;99.90;;;;;;5017650;28;20197;-69
2024/01/10 12:17:55;;;;;;;8.73;5.67;;;1.80;99.90;;;;;;5034019;28;20190;-69
2024/01/10 12:20:21;;;;;;;10.53;6.70;;;1.70;99.90;;;;;;5034080;28;20176;-68
2024/01/10 12:22:47;;;;;;;11.80;6.70;;;1.60;99.90;;;;;;5034075;28;20232;-69
2024/01/10 12:25:13;;;;;;;11.63;7.20;;;1.50;99.90;;;;;;5034003;28;20189;-69
2024/01/10 12:27:39;;;;;;;10.67;6.53;;;1.50;99.90;;;;;;5029218;28;20179;-69
2024/01/10 12:30:05;;;;;;;10.67;6.50;;;1.40;99.90;;;;;;5003849;28;20177;-68
2024/01/10 12:32:31;;;;;;;11.40;7.00;;;1.30;99.90;;;;;;5017549;28;20178;-70
2024/01/10 12:35:04;;;;;;;10.30;6.83;;;1.30;99.90;;;;;;5017598;28;20182;-69
2024/01/10 12:37:30;;;;;;;9.27;5.87;;;1.20;99.90;;;;;;5017669;28;20178;-69
2024/01/10 12:39:56;;;;;;;9.20;6.30;;;1.30;99.90;;;;;;5034372;28;20188;-69
2024/01/10 12:42:25;;;;;;;10.00;6.43;;;1.20;99.90;;;;;;5037293;28;20318;-69
2024/01/10 12:44:51;;;;;;;10.67;6.27;;;1.20;99.90;;;;;;5036796;28;20184;-69
2024/01/10 12:47:25;;;;;;;10.73;6.63;;;1.30;99.90;;;;;;5029368;28;20174;-69